createdAt,value
2018-04-30T00:02:14.678Z,90.00
2018-04-30T00:04:42.201Z,90.10
2018-04-30T00:07:09.767Z,90.00
2018-04-30T00:09:37.288Z,90.70
2018-04-30T00:12:04.815Z,91.10
2018-04-30T00:14:32.396Z,91.60
2018-04-30T00:16:59.919Z,92.10
2018-04-30T00:19:27.483Z,92.20
2018-04-30T00:21:55.027Z,92.30
2018-04-30T00:24:22.600Z,92.40
2018-04-30T00:26:50.119Z,93.00
2018-04-30T00:29:17.659Z,93.20
2018-04-30T00:31:45.226Z,92.90
2018-04-30T00:34:12.739Z,92.40
2018-04-30T00:36:40.230Z,92.20
2018-04-30T00:39:07.783Z,92.30
2018-04-30T00:41:35.316Z,92.50
2018-04-30T00:44:02.879Z,91.70
2018-04-30T00:46:30.414Z,91.80
2018-04-30T00:48:58.682Z,92.90
2018-04-30T00:51:27.065Z,93.40
2018-04-30T00:53:54.636Z,93.40
2018-04-30T00:56:22.247Z,93.60
2018-04-30T00:58:49.784Z,93.90
2018-04-30T01:01:17.315Z,94.00
2018-04-30T01:03:45.654Z,93.80
2018-04-30T01:06:13.375Z,93.80
2018-04-30T01:08:40.903Z,93.80
2018-04-30T01:11:09.202Z,90.20
2018-04-30T01:13:36.749Z,90.50
2018-04-30T01:18:57.689Z,87.50
2018-04-30T01:21:25.283Z,88.50
2018-04-30T01:23:52.803Z,88.60
2018-04-30T01:26:25.612Z,86.50
2018-04-30T01:28:53.141Z,86.40
2018-04-30T01:31:20.669Z,90.10
2018-04-30T01:33:48.207Z,92.90
2018-04-30T01:39:08.714Z,87.80
2018-04-30T01:41:36.231Z,88.30
2018-04-30T01:44:03.746Z,88.50
2018-04-30T01:46:31.370Z,89.10
2018-04-30T01:48:58.915Z,87.40
2018-04-30T01:51:26.453Z,88.50
2018-04-30T01:53:54.756Z,88.90
2018-04-30T01:56:22.398Z,88.90
2018-04-30T01:58:49.947Z,88.50
2018-04-30T02:01:18.229Z,87.50
2018-04-30T02:03:45.824Z,87.50
2018-04-30T02:06:13.352Z,88.00
2018-04-30T02:08:40.903Z,87.90
2018-04-30T02:11:08.412Z,86.70
2018-04-30T02:13:35.924Z,87.80
2018-04-30T02:18:57.506Z,87.10
2018-04-30T02:21:25.064Z,87.30
2018-04-30T02:23:52.584Z,87.30
2018-04-30T02:26:20.111Z,87.00
2018-04-30T02:28:47.704Z,85.70
2018-04-30T02:31:15.243Z,87.00
2018-04-30T02:33:43.677Z,86.80
2018-04-30T02:36:11.234Z,86.80
2018-04-30T02:38:38.736Z,85.40
2018-04-30T02:41:07.020Z,85.50
2018-04-30T02:43:34.575Z,85.40
2018-04-30T02:49:05.611Z,86.20
2018-04-30T02:51:33.159Z,86.30
2018-04-30T02:54:00.762Z,84.60
2018-04-30T02:56:28.335Z,85.20
2018-04-30T02:58:55.843Z,86.00
2018-04-30T03:01:23.402Z,86.20
2018-04-30T03:03:50.936Z,86.70
2018-04-30T03:06:18.443Z,86.20
2018-04-30T03:08:46.007Z,87.60
2018-04-30T03:11:14.315Z,86.00
2018-04-30T03:13:41.836Z,86.00
2018-04-30T03:16:10.166Z,88.50
2018-04-30T03:18:37.684Z,88.40
2018-04-30T03:21:05.211Z,87.30
2018-04-30T03:23:32.798Z,87.10
2018-04-30T03:26:00.334Z,87.00
2018-04-30T03:28:27.866Z,86.80
2018-04-30T03:30:55.415Z,85.90
2018-04-30T03:33:22.983Z,87.20
2018-04-30T03:35:50.494Z,86.60
2018-04-30T03:38:18.839Z,88.00
2018-04-30T03:40:46.359Z,88.00
2018-04-30T03:43:13.902Z,88.20
2018-04-30T03:45:41.430Z,90.00
2018-04-30T03:48:08.934Z,90.60
2018-04-30T03:50:36.442Z,91.10
2018-04-30T03:53:04.035Z,91.60
2018-04-30T03:55:31.566Z,90.80
2018-04-30T03:57:59.099Z,91.30
2018-04-30T04:00:38.287Z,91.90
2018-04-30T04:03:17.735Z,92.30
2018-04-30T04:06:00.005Z,91.90
2018-04-30T04:08:27.566Z,93.10
2018-04-30T04:10:55.127Z,92.50
2018-04-30T04:13:22.643Z,92.90
2018-04-30T04:15:50.243Z,93.20
2018-04-30T04:18:17.733Z,92.60
2018-04-30T04:20:45.294Z,92.60
2018-04-30T04:23:12.818Z,93.00
2018-04-30T04:25:40.372Z,92.60
2018-04-30T04:28:07.955Z,93.50
2018-04-30T04:30:35.490Z,95.40
2018-04-30T04:33:03.855Z,95.60
2018-04-30T04:35:31.405Z,95.60
2018-04-30T04:37:58.916Z,95.50
2018-04-30T04:40:26.447Z,95.30
2018-04-30T04:42:54.753Z,95.90
2018-04-30T04:45:36.564Z,95.90
2018-04-30T04:48:04.135Z,96.10
2018-04-30T04:50:31.657Z,96.00
2018-04-30T04:52:59.190Z,96.30
2018-04-30T04:55:26.731Z,95.90
2018-04-30T04:57:54.359Z,95.70
2018-04-30T05:00:21.880Z,96.00
2018-04-30T05:02:49.427Z,96.20
2018-04-30T05:05:16.959Z,95.90
2018-04-30T05:07:44.474Z,95.50
2018-04-30T05:10:12.032Z,95.80
2018-04-30T05:12:39.567Z,96.10
2018-04-30T05:15:07.086Z,96.10
2018-04-30T05:17:34.669Z,96.20
2018-04-30T05:20:02.320Z,96.40
2018-04-30T05:22:29.833Z,96.20
2018-04-30T05:25:02.327Z,97.10
2018-04-30T05:27:29.854Z,97.10
2018-04-30T05:29:57.540Z,99.90
2018-04-30T05:32:25.075Z,99.90
2018-04-30T05:34:52.805Z,99.90
2018-04-30T05:37:20.400Z,99.90
2018-04-30T05:39:47.930Z,99.90
2018-04-30T05:42:15.495Z,99.90
2018-04-30T05:44:53.679Z,99.90
2018-04-30T05:47:21.236Z,99.90
2018-04-30T05:49:48.761Z,99.90
2018-04-30T05:52:16.265Z,99.90
2018-04-30T05:54:44.585Z,99.90
2018-04-30T05:57:12.102Z,99.90
2018-04-30T05:59:40.389Z,99.90
2018-04-30T06:02:08.678Z,99.90
2018-04-30T06:04:36.204Z,99.90
2018-04-30T06:07:03.765Z,99.90
2018-04-30T06:09:31.252Z,99.90
2018-04-30T06:11:58.769Z,99.90
2018-04-30T06:14:26.298Z,99.90
2018-04-30T06:16:53.811Z,99.90
2018-04-30T06:19:21.317Z,99.90
2018-04-30T06:21:48.826Z,99.90
2018-04-30T06:24:16.407Z,99.90
2018-04-30T06:26:44.026Z,99.90
2018-04-30T06:29:11.488Z,99.90
2018-04-30T06:31:39.053Z,99.90
2018-04-30T06:34:07.376Z,99.90
2018-04-30T06:36:34.902Z,99.90
2018-04-30T06:39:03.202Z,99.90
2018-04-30T06:41:30.755Z,99.90
2018-04-30T06:43:58.270Z,99.90
2018-04-30T06:46:25.945Z,99.90
2018-04-30T06:48:54.250Z,99.90
2018-04-30T06:51:21.771Z,99.90
2018-04-30T06:53:49.299Z,99.90
2018-04-30T06:56:17.028Z,99.90
2018-04-30T06:58:44.644Z,99.90
2018-04-30T07:01:12.202Z,99.90
2018-04-30T07:03:39.790Z,99.90
2018-04-30T07:09:07.623Z,99.90
2018-04-30T07:11:35.138Z,99.90
2018-04-30T07:14:02.654Z,99.90
2018-04-30T07:16:30.248Z,99.90
2018-04-30T07:18:58.584Z,99.90
2018-04-30T07:21:26.107Z,99.90
2018-04-30T07:23:53.673Z,99.90
2018-04-30T07:26:35.627Z,99.90
2018-04-30T07:29:03.360Z,99.90
2018-04-30T07:31:30.914Z,99.90
2018-04-30T07:33:58.436Z,99.90
2018-04-30T07:36:25.984Z,99.90
2018-04-30T07:38:53.530Z,97.60
2018-04-30T07:41:21.119Z,96.90
2018-04-30T07:43:48.690Z,95.40
2018-04-30T07:46:16.252Z,93.70
2018-04-30T07:48:43.853Z,94.30
2018-04-30T07:51:11.432Z,80.70
2018-04-30T07:53:39.750Z,80.30
2018-04-30T07:56:07.290Z,80.20
2018-04-30T07:58:34.839Z,77.20
2018-04-30T08:01:02.383Z,75.20
2018-04-30T08:03:29.923Z,70.50
2018-04-30T08:05:57.454Z,71.10
2018-04-30T08:08:24.962Z,71.20
2018-04-30T08:10:53.278Z,71.40
2018-04-30T08:13:20.799Z,71.40
2018-04-30T08:15:49.094Z,68.30
2018-04-30T08:18:16.674Z,68.30
2018-04-30T08:20:44.181Z,66.30
2018-04-30T08:23:11.750Z,67.00
2018-04-30T08:25:53.634Z,66.50
2018-04-30T08:28:21.150Z,66.60
2018-04-30T08:30:48.682Z,68.20
2018-04-30T08:33:16.241Z,67.50
2018-04-30T08:35:43.783Z,66.80
2018-04-30T08:38:11.297Z,67.20
2018-04-30T08:40:38.883Z,68.00
2018-04-30T08:43:06.402Z,67.00
2018-04-30T08:45:33.924Z,66.30
2018-04-30T08:48:01.522Z,67.00
2018-04-30T08:50:29.047Z,66.60
2018-04-30T08:52:56.561Z,66.80
2018-04-30T08:55:24.117Z,68.40
2018-04-30T08:57:51.651Z,69.30
2018-04-30T09:00:19.275Z,68.40
2018-04-30T09:02:46.747Z,68.70
2018-04-30T09:05:14.318Z,68.60
2018-04-30T09:07:41.903Z,66.20
2018-04-30T09:10:09.590Z,65.60
2018-04-30T09:12:37.162Z,64.10
2018-04-30T09:15:04.809Z,64.40
2018-04-30T09:17:32.329Z,62.80
2018-04-30T09:19:59.858Z,63.10
2018-04-30T09:22:27.392Z,60.00
2018-04-30T09:24:54.914Z,59.70
2018-04-30T09:27:22.467Z,59.60
2018-04-30T09:29:49.983Z,59.30
2018-04-30T09:32:17.519Z,59.80
2018-04-30T09:34:45.849Z,60.40
2018-04-30T09:37:13.365Z,60.40
2018-04-30T09:39:40.895Z,59.80
2018-04-30T09:42:08.460Z,58.60
2018-04-30T09:44:35.977Z,58.70
2018-04-30T09:47:03.498Z,59.10
2018-04-30T09:49:31.827Z,58.50
2018-04-30T09:51:59.406Z,58.50
2018-04-30T09:54:26.985Z,59.30
2018-04-30T09:56:55.318Z,58.10
2018-04-30T09:59:22.847Z,58.10
2018-04-30T10:01:50.387Z,56.50
2018-04-30T10:04:18.715Z,48.40
2018-04-30T10:06:46.258Z,48.10
2018-04-30T10:09:13.780Z,40.30
2018-04-30T10:11:42.122Z,40.50
2018-04-30T10:14:09.635Z,40.50
2018-04-30T10:16:37.153Z,37.50
2018-04-30T10:19:04.747Z,38.10
2018-04-30T10:21:32.275Z,39.00
2018-04-30T10:23:59.796Z,37.80
2018-04-30T10:26:27.365Z,38.40
2018-04-30T10:28:54.883Z,37.70
2018-04-30T10:31:22.422Z,37.70
2018-04-30T10:33:49.965Z,37.40
2018-04-30T10:36:31.817Z,37.10
2018-04-30T10:38:59.377Z,37.50
2018-04-30T10:41:26.901Z,36.70
2018-04-30T10:43:55.190Z,36.60
2018-04-30T10:46:22.735Z,36.50
2018-04-30T10:48:50.274Z,38.30
2018-04-30T10:51:17.799Z,39.40
2018-04-30T10:53:45.344Z,36.90
2018-04-30T10:56:12.906Z,37.90
2018-04-30T10:58:40.423Z,39.10
2018-04-30T11:01:08.714Z,37.30
2018-04-30T11:03:36.278Z,37.30
2018-04-30T11:06:03.794Z,37.80
2018-04-30T11:08:31.314Z,37.50
2018-04-30T11:10:58.846Z,35.90
2018-04-30T11:13:26.399Z,36.10
2018-04-30T11:15:53.977Z,37.10
2018-04-30T11:18:21.495Z,36.10
2018-04-30T11:20:49.081Z,37.20
2018-04-30T11:23:16.587Z,36.40
2018-04-30T11:25:44.108Z,35.10
2018-04-30T11:28:11.651Z,35.60
2018-04-30T11:30:39.183Z,34.00
2018-04-30T11:33:06.717Z,33.60
2018-04-30T11:35:34.258Z,33.70
2018-04-30T11:38:01.855Z,33.50
2018-04-30T11:40:29.385Z,32.80
2018-04-30T11:42:56.915Z,33.60
2018-04-30T11:45:24.679Z,33.60
2018-04-30T11:47:52.204Z,31.50
2018-04-30T11:50:20.575Z,32.50
2018-04-30T11:52:48.150Z,31.80
2018-04-30T11:55:16.694Z,32.00
2018-04-30T11:57:44.270Z,32.00
2018-04-30T12:00:11.806Z,31.10
2018-04-30T12:02:39.332Z,30.70
2018-04-30T12:05:12.035Z,32.10
2018-04-30T12:07:39.567Z,32.20
2018-04-30T12:10:07.099Z,30.80
2018-04-30T12:12:34.719Z,31.40
2018-04-30T12:15:07.387Z,30.00
2018-04-30T12:17:34.897Z,31.10
2018-04-30T12:20:03.237Z,30.40
2018-04-30T12:22:30.790Z,30.30
2018-04-30T12:24:58.307Z,31.20
2018-04-30T12:27:25.874Z,30.50
2018-04-30T12:29:53.411Z,32.00
2018-04-30T12:32:21.703Z,32.70
2018-04-30T12:34:49.282Z,32.60
2018-04-30T12:37:16.794Z,33.00
2018-04-30T12:39:44.330Z,31.90
2018-04-30T12:42:11.878Z,32.10
2018-04-30T12:44:39.411Z,33.90
2018-04-30T12:47:06.960Z,33.80
2018-04-30T12:49:34.577Z,34.10
2018-04-30T12:52:02.790Z,36.40
2018-04-30T12:54:30.353Z,36.40
2018-04-30T12:56:57.922Z,36.70
2018-04-30T12:59:25.462Z,37.70
2018-04-30T13:01:53.014Z,36.90
2018-04-30T13:04:20.561Z,37.30
2018-04-30T13:06:48.918Z,37.40
2018-04-30T13:09:16.492Z,37.30
2018-04-30T13:11:44.029Z,38.00
2018-04-30T13:14:11.581Z,38.90
2018-04-30T13:16:39.124Z,38.80
2018-04-30T13:19:06.687Z,39.90
2018-04-30T13:21:34.217Z,39.20
2018-04-30T13:24:02.571Z,39.60
2018-04-30T13:26:30.100Z,39.50
2018-04-30T13:28:57.625Z,40.40
2018-04-30T13:31:25.144Z,40.60
2018-04-30T13:33:52.682Z,41.40
2018-04-30T13:42:15.267Z,40.00
2018-04-30T13:47:50.148Z,40.90
2018-04-30T13:50:17.718Z,41.70
2018-04-30T13:52:45.250Z,41.70
2018-04-30T13:55:12.850Z,41.10
2018-04-30T13:57:40.398Z,41.40
2018-04-30T14:00:08.675Z,40.00
2018-04-30T14:02:36.222Z,40.00
2018-04-30T14:05:24.133Z,40.20
2018-04-30T14:07:51.666Z,39.50
2018-04-30T14:10:19.210Z,38.60
2018-04-30T14:12:46.770Z,39.70
2018-04-30T14:15:14.306Z,39.60
2018-04-30T14:17:41.838Z,39.20
2018-04-30T14:20:09.434Z,39.40
2018-04-30T14:22:36.970Z,40.10
2018-04-30T14:25:09.953Z,39.70
2018-04-30T14:27:37.485Z,40.40
2018-04-30T14:30:05.008Z,40.20
2018-04-30T14:32:32.558Z,40.30
2018-04-30T14:35:00.073Z,40.20
2018-04-30T14:37:27.590Z,40.10
2018-04-30T14:39:55.907Z,40.30
2018-04-30T14:42:23.417Z,40.30
2018-04-30T14:44:56.127Z,39.60
2018-04-30T14:47:23.663Z,40.20
2018-04-30T14:49:51.187Z,40.90
2018-04-30T14:52:18.761Z,40.80
2018-04-30T14:54:46.295Z,40.50
2018-04-30T14:57:14.608Z,40.50
2018-04-30T14:59:42.181Z,40.50
2018-04-30T15:02:09.694Z,41.40
2018-04-30T15:04:37.241Z,41.20
2018-04-30T15:07:04.791Z,40.00
2018-04-30T15:09:32.352Z,39.70
2018-04-30T15:11:59.870Z,40.20
2018-04-30T15:14:27.404Z,40.70
2018-04-30T15:16:54.940Z,41.20
2018-04-30T15:19:23.243Z,41.00
2018-04-30T15:21:50.783Z,40.90
2018-04-30T15:24:19.096Z,40.40
2018-04-30T15:26:46.628Z,40.40
2018-04-30T15:29:14.154Z,40.10
2018-04-30T15:31:41.682Z,40.20
2018-04-30T15:34:09.290Z,40.40
2018-04-30T15:36:37.596Z,38.70
2018-04-30T15:39:05.118Z,38.60
2018-04-30T15:41:32.622Z,38.40
2018-04-30T15:44:00.183Z,40.30
2018-04-30T15:46:42.108Z,39.80
2018-04-30T15:49:11.111Z,40.50
2018-04-30T15:51:38.634Z,40.40
2018-04-30T15:54:06.198Z,40.90
2018-04-30T15:56:33.758Z,41.20
2018-04-30T15:59:01.310Z,42.30
2018-04-30T16:01:28.826Z,43.20
2018-04-30T16:03:56.358Z,42.20
2018-04-30T16:06:23.907Z,42.00
2018-04-30T16:08:51.456Z,42.10
2018-04-30T16:11:19.023Z,42.00
2018-04-30T16:13:46.545Z,42.80
2018-04-30T16:16:14.083Z,44.00
2018-04-30T16:18:41.655Z,43.80
2018-04-30T16:21:09.183Z,44.50
2018-04-30T16:23:37.503Z,44.50
2018-04-30T16:26:05.040Z,44.50
2018-04-30T16:28:32.574Z,43.50
2018-04-30T16:31:00.858Z,44.20
2018-04-30T16:33:28.376Z,44.10
2018-04-30T16:35:55.925Z,43.00
2018-04-30T16:38:23.526Z,44.20
2018-04-30T16:40:51.117Z,43.00
2018-04-30T16:43:18.650Z,43.20
2018-04-30T16:45:46.954Z,44.30
2018-04-30T16:48:14.516Z,44.30
2018-04-30T16:50:42.083Z,44.20
2018-04-30T16:53:09.678Z,44.50
2018-04-30T16:55:37.177Z,45.40
2018-04-30T16:58:04.710Z,45.10
2018-04-30T17:00:32.278Z,44.60
2018-04-30T17:02:59.819Z,45.40
2018-04-30T17:05:27.571Z,45.70
2018-04-30T17:07:55.179Z,45.90
2018-04-30T17:10:22.708Z,45.40
2018-04-30T17:12:50.242Z,45.20
2018-04-30T17:15:17.787Z,45.20
2018-04-30T17:17:45.329Z,44.70
2018-04-30T17:20:12.893Z,45.70
2018-04-30T17:22:40.423Z,46.10
2018-04-30T17:25:07.958Z,46.30
2018-04-30T17:27:35.535Z,46.90
2018-04-30T17:30:03.038Z,45.60
2018-04-30T17:32:30.599Z,47.10
2018-04-30T17:34:58.235Z,46.30
2018-04-30T17:37:26.579Z,46.90
2018-04-30T17:39:54.147Z,46.80
2018-04-30T17:42:22.486Z,46.80
2018-04-30T17:47:53.591Z,47.00
2018-04-30T17:50:21.212Z,47.00
2018-04-30T17:52:48.782Z,47.80
2018-04-30T17:58:19.059Z,48.30
2018-04-30T18:00:46.582Z,48.50
2018-04-30T18:03:14.208Z,48.30
2018-04-30T18:05:41.782Z,48.40
2018-04-30T18:08:09.394Z,48.60
2018-04-30T18:10:36.990Z,48.10
2018-04-30T18:13:04.573Z,49.40
2018-04-30T18:15:32.142Z,49.40
2018-04-30T18:17:59.752Z,52.60
2018-04-30T18:20:27.759Z,54.30
2018-04-30T18:22:55.358Z,53.90
2018-04-30T18:25:22.928Z,56.40
2018-04-30T18:27:50.542Z,56.80
2018-04-30T18:30:18.127Z,57.10
2018-04-30T18:32:46.497Z,57.70
2018-04-30T18:35:14.057Z,57.70
2018-04-30T18:37:41.632Z,56.70
2018-04-30T18:40:09.999Z,57.20
2018-04-30T18:42:37.608Z,57.20
2018-04-30T18:45:05.214Z,57.20
2018-04-30T18:47:32.800Z,58.30
2018-04-30T18:50:00.382Z,58.10
2018-04-30T18:52:27.993Z,59.40
2018-04-30T18:54:55.566Z,59.20
2018-04-30T18:57:23.922Z,60.30
2018-04-30T18:59:51.472Z,60.20
2018-04-30T19:02:19.062Z,59.60
2018-04-30T19:04:46.890Z,60.00
2018-04-30T19:07:14.441Z,58.10
2018-04-30T19:09:41.999Z,58.50
2018-04-30T19:12:09.587Z,60.00
2018-04-30T19:14:37.187Z,59.70
2018-04-30T19:17:04.777Z,60.50
2018-04-30T19:19:32.333Z,61.00
2018-04-30T19:21:59.947Z,60.80
2018-04-30T19:24:27.530Z,60.90
2018-04-30T19:27:04.742Z,61.00
2018-04-30T19:29:32.319Z,62.30
2018-04-30T19:31:59.863Z,62.10
2018-04-30T19:34:27.477Z,63.90
2018-04-30T19:36:55.148Z,63.30
2018-04-30T19:39:22.726Z,63.60
2018-04-30T19:41:50.315Z,62.30
2018-04-30T19:44:17.855Z,63.80
2018-04-30T19:46:50.610Z,63.50
2018-04-30T19:49:18.148Z,63.20
2018-04-30T19:51:45.742Z,63.10
2018-04-30T19:54:13.328Z,63.50
2018-04-30T19:56:40.871Z,63.20
2018-04-30T19:59:08.470Z,62.60
2018-04-30T20:01:36.061Z,62.70
2018-04-30T20:04:03.619Z,63.20
2018-04-30T20:06:31.223Z,61.40
2018-04-30T20:08:58.862Z,62.40
2018-04-30T20:11:26.376Z,63.10
2018-04-30T20:13:54.706Z,63.70
2018-04-30T20:16:22.311Z,63.70
2018-04-30T20:18:49.870Z,63.20
2018-04-30T20:21:17.473Z,64.20
2018-04-30T20:23:45.019Z,63.50
2018-04-30T20:26:12.623Z,64.00
2018-04-30T20:28:40.190Z,64.80
2018-04-30T20:31:07.758Z,64.60
2018-04-30T20:33:35.398Z,64.30
2018-04-30T20:36:02.968Z,66.00
2018-04-30T20:38:30.544Z,66.50
2018-04-30T20:40:58.891Z,67.80
2018-04-30T20:43:26.446Z,67.70
2018-04-30T20:45:54.086Z,68.50
2018-04-30T20:48:21.715Z,68.10
2018-04-30T20:50:50.030Z,63.90
2018-04-30T20:53:17.574Z,63.90
2018-04-30T20:55:45.166Z,62.10
2018-04-30T20:58:12.762Z,60.80
2018-04-30T21:00:41.095Z,58.90
2018-04-30T21:03:08.700Z,58.90
2018-04-30T21:05:37.032Z,58.90
2018-04-30T21:08:04.583Z,58.90
2018-04-30T21:10:32.311Z,59.30
2018-04-30T21:12:59.931Z,59.00
2018-04-30T21:15:27.559Z,58.80
2018-04-30T21:17:55.139Z,58.20
2018-04-30T21:20:22.739Z,58.10
2018-04-30T21:22:50.367Z,58.40
2018-04-30T21:25:18.007Z,58.60
2018-04-30T21:27:45.546Z,58.20
2018-04-30T21:30:13.122Z,58.30
2018-04-30T21:32:40.708Z,58.30
2018-04-30T21:35:22.850Z,58.80
2018-04-30T21:37:50.419Z,59.00
2018-04-30T21:40:18.022Z,59.00
2018-04-30T21:42:45.560Z,59.00
2018-04-30T21:45:13.183Z,58.80
2018-04-30T21:47:40.755Z,59.20
2018-04-30T21:50:08.332Z,59.80
2018-04-30T21:52:35.910Z,59.50
2018-04-30T21:55:03.527Z,60.00
2018-04-30T21:57:31.103Z,60.30
2018-04-30T21:59:58.688Z,60.50
2018-04-30T22:02:26.238Z,62.40
2018-04-30T22:04:53.854Z,61.70
2018-04-30T22:07:21.431Z,61.90
2018-04-30T22:09:48.998Z,63.00
2018-04-30T22:12:16.599Z,64.60
2018-04-30T22:14:44.164Z,65.40
2018-04-30T22:17:11.743Z,67.00
2018-04-30T22:19:40.131Z,67.70
2018-04-30T22:22:07.739Z,67.70
2018-04-30T22:24:35.303Z,68.10
2018-04-30T22:27:02.876Z,69.40
2018-04-30T22:29:30.430Z,67.20
2018-04-30T22:31:58.394Z,69.50
2018-04-30T22:34:25.942Z,70.80
2018-04-30T22:36:53.636Z,71.70
2018-04-30T22:39:21.222Z,72.80
2018-04-30T22:41:49.602Z,73.50
2018-04-30T22:44:17.167Z,73.50
2018-04-30T22:49:37.926Z,76.20
2018-04-30T22:52:05.513Z,76.40
2018-04-30T22:54:33.111Z,77.60
2018-04-30T22:57:00.670Z,75.90
2018-04-30T22:59:28.260Z,76.60
2018-04-30T23:01:55.811Z,77.90
2018-04-30T23:04:23.362Z,78.40
2018-04-30T23:06:50.964Z,79.30
2018-04-30T23:09:18.502Z,79.80
2018-04-30T23:11:46.098Z,79.20
2018-04-30T23:14:13.653Z,78.50
2018-04-30T23:16:41.243Z,78.70
2018-04-30T23:19:08.828Z,79.40
2018-04-30T23:21:36.446Z,78.40
2018-04-30T23:24:04.782Z,80.40
2018-04-30T23:26:32.354Z,80.30
2018-04-30T23:28:59.953Z,79.80
2018-04-30T23:31:27.523Z,79.90
2018-04-30T23:33:55.083Z,76.60
2018-04-30T23:36:22.694Z,77.80
2018-04-30T23:38:50.311Z,78.50
2018-04-30T23:41:17.903Z,79.60
2018-04-30T23:43:45.499Z,80.30
2018-04-30T23:46:13.110Z,80.80
2018-04-30T23:48:40.678Z,80.70
2018-04-30T23:51:08.266Z,80.30
2018-04-30T23:53:35.857Z,79.00
2018-04-30T23:56:03.573Z,80.10
2018-04-30T23:58:31.131Z,81.10
